Portada
METAR-TAF:

METAR-TAF

Aeroports :

Hyderabad, Índia

latitud: 17-27N, longitud: 078-28E, altitud: 530 m

Observació

L'informe es va fer fa 6 hores i 4 minuts, a les 16:30 UTC
Vent 4 kt del Nord-Est
Temperatura 24°C
Humitat 57%
Pressió 1017 hPa
Visibilitat: 6000 m
Escasses núvols a una alçada de 2000 ft

METAR: VOHY 261630Z 05004KT 6000 FEW020 24/15 Q1017 NOSIG

Hora: 04:04 (22:34 UTC)

Pronòstic

L'informe es va fer fa 11 hores i 34 minuts, a les 11:00 UTC
Pronòstic vàlid del 26 a les 12 UTC al 26 a les 21 UTC
Vent 7 kt del Est/Nord-Est
Visibilitat: 6000 m
Núvols disperses a una alçada de 2000 ft
Núvols disperses a una alçada de 2500 ft
Evolucionant progressivament
l' 26 a les 14 UTC al 26 a les 16 UTC
Vent 6 kt del Est
Visibilitat: 5000 m
Núvols disperses a una alçada de 2000 ft
Núvols disperses a una alçada de 10000 ft
calitja

TAF: VOHY 261100Z 2612/2621 07007KT 6000 SCT020 SCT025 BECMG 2614/2616 08006KT 5000 HZ SCT020 SCT100

Observacions i pronòstics meteorològics de més de 4000 aeroports (METAR i TAF).

Les estacions disponibles són els punts grocs i vermells al mapa.

Posi el ratolí al punt desitjat per veure el nom de l'estació.

Feu clic per veure les observacions i els pronòstics meteorològics.

Per canviar el mapa: feu clic els botons verds amb una creu de color negre per apropar; al botó verd amb un guió per allunyar la imatge; o en les fletxes verdes per a mapes adjacents.


METAR-TAF: